Time;durP1;ratioP1;P1;durP2;ratioP2;P2;SDS_P1;SDS_P2;PMS_P1;PMS_P2;Temp;Humidity;BMP_temperature;BMP_pressure;BME280_temperature;BME280_humidity;BME280_pressure;Samples;Min_cycle;Max_cycle;Signal;HPM_P1;HPM_P2
2021/12/17 00:00:19;;;;;;;;;50.75;40.50;;;;;10.82;64.08;103453.75;6033549;23;45391;-80
2021/12/17 00:05:45;;;;;;;;;46.75;39.25;;;;;10.75;64.17;103446.66;6033296;23;45734;-81
2021/12/17 00:08:10;;;;;;;;;49.00;41.50;;;;;10.65;64.16;103426.19;6033091;23;45410;-81
2021/12/17 00:10:37;;;;;;;;;48.75;38.75;;;;;10.73;64.23;103459.09;6033202;23;45310;-81
2021/12/17 00:13:03;;;;;;;;;50.25;39.00;;;;;10.72;64.25;103459.97;6033030;23;45504;-81
2021/12/17 00:15:28;;;;;;;;;50.75;40.25;;;;;10.58;64.21;103441.28;6032195;23;45552;-81
2021/12/17 00:18:00;;;;;;;;;48.00;40.50;;;;;10.67;64.59;103457.31;6032360;23;45445;-81
2021/12/17 00:20:56;;;;;;;;;47.00;37.75;;;;;10.32;64.88;103395.97;6030174;23;45637;-81
2021/12/17 00:51:23;;;;;;;;;49.75;38.75;;;;;10.70;65.91;103445.75;6094254;23;45409;-80
2021/12/17 00:53:38;;;;;;;;;36.50;32.25;;;;;10.72;66.12;103447.53;6093728;23;45299;-81
2021/12/17 00:56:04;;;;;;;;;40.50;36.00;;;;;10.73;65.88;103437.75;6094201;23;45537;-80
2021/12/17 00:58:29;;;;;;;;;35.50;31.50;;;;;10.59;65.51;103413.75;6094221;23;45267;-81
2021/12/17 01:00:54;;;;;;;;;46.25;35.75;;;;;10.68;65.56;103431.53;6094233;23;45248;-80
2021/12/17 01:03:20;;;;;;;;;43.25;35.00;;;;;10.49;65.95;103394.22;6094648;23;45425;-81
2021/12/17 01:05:45;;;;;;;;;39.75;34.00;;;;;10.55;65.26;103409.31;6068231;23;48116;-81
2021/12/17 01:08:11;;;;;;;;;45.75;35.50;;;;;10.65;65.37;103415.50;6094345;23;45417;-80
2021/12/17 01:10:49;;;;;;;;;41.25;34.25;;;;;10.62;65.41;103416.41;6094112;23;45330;-80
2021/12/17 01:13:14;;;;;;;;;44.75;36.50;;;;;10.61;65.41;103408.44;6095307;23;45318;-80
2021/12/17 01:15:43;;;;;;;;;45.67;35.67;;;;;10.76;65.33;103441.28;6094007;23;45267;-80
2021/12/17 01:18:14;;;;;;;;;44.00;36.00;;;;;10.75;65.01;103436.84;6094306;23;45349;-80
2021/12/17 01:23:45;;;;;;;;;48.00;36.50;;;;;10.76;64.82;103441.28;6094910;23;45379;-80
2021/12/17 01:37:13;;;;;;;;;42.00;36.00;;;;;10.75;64.84;103430.66;6033661;23;45682;-81
2021/12/17 01:42:13;;;;;;;;;46.75;36.00;;;;;10.50;64.49;103387.97;6033986;23;45455;-81
2021/12/17 01:44:40;;;;;;;;;46.50;39.00;;;;;10.71;64.36;103429.75;6033616;23;45541;-80
2021/12/17 01:47:09;;;;;;;;;43.25;37.00;;;;;10.70;64.60;103424.41;6033650;23;46278;-81
2021/12/17 02:00:14;;;;;;;;;40.00;35.33;;;;;10.67;64.13;103433.28;6033294;23;45288;-79
2021/12/17 02:02:45;;;;;;;;;39.67;35.00;;;;;10.65;64.20;103429.78;6032310;23;45380;-80
2021/12/17 02:05:12;;;;;;;;;41.00;34.33;;;;;10.68;64.18;103432.44;6033710;23;45578;-80
2021/12/17 02:07:38;;;;;;;;;39.00;31.67;;;;;10.55;63.92;103410.19;6043224;23;45491;-79
2021/12/17 02:12:42;;;;;;;;;38.33;31.33;;;;;10.61;64.12;103425.31;6093932;23;45389;-79
2021/12/17 02:28:54;;;;;;;;;46.33;35.33;;;;;10.21;64.07;103387.97;6093743;23;45797;-80
2021/12/17 02:31:27;;;;;;;;;39.00;34.00;;;;;10.41;64.11;103424.44;6094258;23;45418;-79
2021/12/17 02:33:57;;;;;;;;;42.33;35.33;;;;;10.37;64.51;103427.97;6094119;23;45327;-80
2021/12/17 02:36:27;;;;;;;;;39.67;34.00;;;;;10.35;64.41;103428.00;6094743;23;45367;-79
2021/12/17 02:39:07;;;;;;;;;41.67;35.67;;;;;10.34;64.32;103418.19;6093486;23;46166;-80
2021/12/17 02:47:04;;;;;;;;;38.33;31.67;;;;;10.35;64.36;103417.34;6094286;23;45279;-79
2021/12/17 02:49:31;;;;;;;;;43.33;35.67;;;;;10.16;64.51;103387.09;6094307;23;45374;-80
2021/12/17 02:52:01;;;;;;;;;46.25;34.25;;;;;10.19;64.58;103395.06;6067153;23;45844;-80
2021/12/17 02:54:28;;;;;;;;;44.00;34.00;;;;;10.29;64.60;103412.88;6093708;23;45351;-80
2021/12/17 02:56:53;;;;;;;;;39.75;33.75;;;;;10.07;64.37;103373.75;6093229;23;45378;-80
2021/12/17 02:59:19;;;;;;;;;39.33;32.00;;;;;10.04;64.55;103368.41;6093850;23;45961;-80
2021/12/17 03:01:45;;;;;;;;;38.33;34.00;;;;;10.24;64.70;103409.28;6093709;23;45732;-79
2021/12/17 03:04:12;;;;;;;;;40.67;34.33;;;;;10.19;65.04;103387.06;6094471;23;45318;-80
2021/12/17 03:06:40;;;;;;;;;43.25;33.00;;;;;10.22;64.85;103403.06;6094440;23;45286;-80
2021/12/17 03:09:06;;;;;;;;;43.00;34.75;;;;;10.22;64.68;103397.72;6093276;23;45477;-80
2021/12/17 03:11:31;;;;;;;;;40.67;32.33;;;;;10.21;64.77;103398.63;6093782;23;45342;-79
2021/12/17 03:13:57;;;;;;;;;45.00;38.00;;;;;10.20;65.03;103394.16;6094227;23;45367;-80
2021/12/17 03:24:04;;;;;;;;;35.00;31.25;;;;;10.14;64.89;103387.06;6094151;23;45701;-80
2021/12/17 03:26:30;;;;;;;;;39.00;33.00;;;;;10.19;64.61;103402.19;6067751;23;45551;-80
2021/12/17 03:28:58;;;;;;;;;42.75;34.00;;;;;10.09;64.66;103390.59;6093570;23;45406;-80
2021/12/17 03:31:25;;;;;;;;;42.00;33.75;;;;;10.17;64.74;103398.63;6094446;23;45669;-80
2021/12/17 03:33:56;;;;;;;;;40.25;34.00;;;;;10.15;64.86;103394.16;6093885;23;45321;-80
2021/12/17 03:36:21;;;;;;;;;43.00;35.33;;;;;10.08;64.93;103378.19;6094641;23;45315;-80
2021/12/17 03:38:49;;;;;;;;;40.33;32.67;;;;;10.18;65.00;103400.38;6093494;23;45841;-79
2021/12/17 03:43:49;;;;;;;;;39.33;34.00;;;;;10.07;64.97;103390.63;6093512;23;45344;-79
2021/12/17 03:46:15;;;;;;;;;38.67;32.33;;;;;10.15;64.63;103402.16;6094355;23;45331;-79
2021/12/17 03:48:42;;;;;;;;;44.00;35.25;;;;;10.17;65.02;103409.28;6093642;23;45779;-80
2021/12/17 03:51:13;;;;;;;;;47.33;34.67;;;;;10.21;65.03;103405.72;6093661;23;45287;-80
2021/12/17 03:53:40;;;;;;;;;43.00;34.33;;;;;10.22;64.82;103403.06;6094436;23;45267;-79
2021/12/17 03:56:06;;;;;;;;;40.25;34.25;;;;;10.18;65.03;103389.72;6093015;23;45528;-79
2021/12/17 03:58:32;;;;;;;;;34.67;32.00;;;;;10.29;64.85;103404.88;6093668;23;45337;-79
2021/12/17 04:00:57;;;;;;;;;43.33;34.33;;;;;10.30;64.93;103404.00;6093380;23;45278;-79
2021/12/17 04:03:22;;;;;;;;;46.75;37.00;;;;;10.24;64.85;103390.63;6092785;23;45381;-79
2021/12/17 04:05:48;;;;;;;;;42.00;33.67;;;;;10.19;64.70;103373.75;6093660;23;45476;-80
2021/12/17 04:08:14;;;;;;;;;34.67;32.00;;;;;10.43;64.61;103412.00;6093306;23;45388;-79
2021/12/17 04:10:46;;;;;;;;;43.67;34.00;;;;;10.39;64.70;103394.22;6093229;23;45423;-79
2021/12/17 04:13:33;;;;;;;;;36.00;33.67;;;;;10.47;64.59;103405.78;6093941;23;45282;-80
2021/12/17 04:16:06;;;;;;;;;36.33;32.00;;;;;10.49;64.80;103402.22;6093583;23;45343;-80
2021/12/17 04:18:34;;;;;;;;;40.33;32.67;;;;;10.46;64.93;103394.19;6094044;23;45351;-79
2021/12/17 04:21:02;;;;;;;;;43.33;35.33;;;;;10.51;64.74;103407.53;6092880;23;45394;-79
2021/12/17 04:23:28;;;;;;;;;38.33;34.00;;;;;10.23;64.56;103354.22;6094121;23;45339;-79
2021/12/17 04:25:53;;;;;;;;;35.33;30.00;;;;;10.42;64.64;103372.88;6093519;23;45421;-79
2021/12/17 04:28:20;;;;;;;;;38.33;32.67;;;;;10.57;64.75;103397.75;6067486;23;47807;-79
2021/12/17 04:30:47;;;;;;;;;39.67;33.00;;;;;10.53;64.64;103389.75;6093350;23;45401;-78
2021/12/17 04:33:13;;;;;;;;;37.33;31.67;;;;;10.62;64.86;103389.75;6092881;23;45125;-78
2021/12/17 04:35:39;;;;;;;;;35.00;30.67;;;;;10.60;64.62;103385.31;6094548;23;45442;-79
2021/12/17 04:38:07;;;;;;;;;31.67;30.67;;;;;10.65;64.45;103392.44;6092601;23;45398;-78
2021/12/17 04:40:35;;;;;;;;;33.00;30.33;;;;;10.48;64.53;103359.53;6093350;23;45335;-78
2021/12/17 04:45:26;;;;;;;;;30.00;24.00;;;;;10.37;64.57;103332.88;6094242;23;45244;-78
2021/12/17 04:58:46;;;;;;;;;36.67;32.00;;;;;10.72;64.57;103372.84;6092763;23;45494;-79
2021/12/17 05:01:14;;;;;;;;;30.67;30.33;;;;;10.80;64.84;103388.84;6092613;23;45384;-79
2021/12/17 05:03:40;;;;;;;;;41.00;33.67;;;;;10.69;64.97;103370.16;6093463;23;45281;-79
2021/12/17 05:06:06;;;;;;;;;35.67;32.67;;;;;10.71;64.68;103367.50;6093028;23;45553;-79
2021/12/17 05:08:32;;;;;;;;;36.33;32.00;;;;;10.87;64.69;103389.72;6092747;23;45227;-79
2021/12/17 05:19:18;;;;;;;;;34.33;30.00;;;;;10.95;65.01;103387.91;6093017;23;45780;-79
2021/12/17 05:21:43;;;;;;;;;31.67;24.00;;;;;10.76;65.30;103357.72;6092873;23;45354;-79
2021/12/17 05:24:08;;;;;;;;;32.67;30.33;;;;;10.95;65.15;103382.56;6092693;23;45379;-79
2021/12/17 05:26:34;;;;;;;;;33.67;30.00;;;;;11.01;64.79;103390.56;6093482;23;45350;-79
2021/12/17 05:28:59;;;;;;;;;37.50;32.00;;;;;10.90;65.03;103365.69;6092870;23;45260;-79
2021/12/17 05:31:25;;;;;;;;;32.67;31.00;;;;;11.05;64.94;103394.09;6092733;23;45330;-79
2021/12/17 05:33:52;;;;;;;;;32.33;30.00;;;;;11.03;64.91;103386.13;6094007;23;45316;-79
2021/12/17 05:36:18;;;;;;;;;35.67;30.33;;;;;11.08;64.99;103388.78;6094298;23;45541;-79
2021/12/17 05:38:44;;;;;;;;;32.67;29.67;;;;;10.88;65.01;103351.44;6094623;23;45379;-79
2021/12/17 05:41:09;;;;;;;;;31.67;28.00;;;;;10.92;64.99;103350.56;6094061;23;45320;-79
2021/12/17 05:43:37;;;;;;;;;37.00;31.67;;;;;11.04;65.08;103365.63;6095061;23;45338;-80
2021/12/17 05:46:10;;;;;;;;;34.67;32.67;;;;;11.14;64.94;103370.03;6094501;23;45594;-80
2021/12/17 05:48:36;;;;;;;;;36.67;32.00;;;;;11.01;64.97;103352.31;6068307;23;46512;-80
2021/12/17 05:51:07;;;;;;;;;28.33;26.00;;;;;11.15;64.92;103380.72;6093852;23;45407;-80
2021/12/17 05:53:33;;;;;;;;;35.33;30.33;;;;;11.10;64.82;103370.97;6094609;23;45370;-80
2021/12/17 05:55:59;;;;;;;;;34.67;28.00;;;;;10.92;64.75;103329.22;6094547;23;45343;-80
2021/12/17 05:58:25;;;;;;;;;34.67;29.67;;;;;11.20;65.00;103373.56;6093705;23;46268;-80
2021/12/17 06:00:50;;;;;;;;;38.67;32.67;;;;;11.10;65.11;103362.97;6094210;23;45390;-80
2021/12/17 06:03:18;;;;;;;;;34.00;29.67;;;;;11.19;64.82;103368.22;6093684;23;45408;-80
2021/12/17 06:05:43;;;;;;;;;32.33;29.00;;;;;11.25;64.79;103375.34;6094658;23;45385;-80
2021/12/17 06:08:09;;;;;;;;;31.00;30.00;;;;;11.16;64.80;103361.13;6094319;23;45368;-80
2021/12/17 06:10:35;;;;;;;;;32.67;30.67;;;;;11.07;65.09;103331.81;6094959;23;45394;-80
2021/12/17 06:13:00;;;;;;;;;28.33;26.00;;;;;11.22;64.96;103359.34;6095045;23;47236;-80
2021/12/17 06:15:25;;;;;;;;;43.33;32.67;;;;;11.15;64.93;103335.34;6094129;23;45346;-80
2021/12/17 06:17:52;;;;;;;;;36.00;30.33;;;;;11.33;64.88;103374.44;6093749;23;45284;-80
2021/12/17 06:20:19;;;;;;;;;35.33;31.33;;;;;11.17;64.70;103338.03;6093988;23;45299;-80
2021/12/17 06:22:45;;;;;;;;;32.67;29.33;;;;;11.30;64.40;103361.06;6094712;23;45350;-80
2021/12/17 06:25:12;;;;;;;;;35.00;32.00;;;;;11.40;64.71;103367.25;6094574;23;45309;-80
2021/12/17 06:27:38;;;;;;;;;37.67;31.00;;;;;11.03;64.75;103305.13;6093578;23;46607;-80
2021/12/17 06:30:06;;;;;;;;;35.67;32.00;;;;;11.43;64.74;103374.38;6094255;23;45299;-78
2021/12/17 06:32:32;;;;;;;;;38.67;31.67;;;;;11.31;64.53;103360.19;6094150;23;45539;-78
2021/12/17 06:34:58;;;;;;;;;37.67;33.00;;;;;11.41;64.79;103374.38;6093286;23;45393;-77
2021/12/17 06:37:23;;;;;;;;;35.67;32.00;;;;;11.46;64.56;103375.25;6093337;23;46735;-79
2021/12/17 06:39:49;;;;;;;;;37.00;32.00;;;;;11.40;64.56;103373.50;6094205;23;45303;-78
2021/12/17 06:42:15;;;;;;;;;27.33;26.33;;;;;11.52;64.21;103382.31;6094331;23;45382;-78
2021/12/17 06:44:42;;;;;;;;;42.67;28.67;;;;;11.53;64.28;103381.44;6066803;23;45366;-78
2021/12/17 07:06:01;;;;;;;;;35.33;32.33;;;;;11.65;64.23;103383.16;6004762;23;45487;-78
2021/12/17 07:09:22;;;;;;;;;31.00;30.00;;;;;11.63;64.00;103383.16;6004385;23;46113;-78
2021/12/17 07:33:05;;;;;;;;;36.67;30.00;;;;;11.72;63.75;103372.41;6093033;23;45220;-77
2021/12/17 07:35:42;;;;;;;;;36.67;31.67;;;;;11.73;63.80;103376.88;6093990;23;45271;-78
2021/12/17 07:40:54;;;;;;;;;34.00;30.00;;;;;11.77;63.55;103391.97;6093258;23;45510;-78
2021/12/17 07:43:29;;;;;;;;;36.33;31.33;;;;;11.78;63.93;103382.19;6094218;23;45516;-77
2021/12/17 07:45:55;;;;;;;;;35.67;32.00;;;;;11.95;63.86;103404.38;6093814;23;45638;-78
2021/12/17 07:48:22;;;;;;;;;35.67;29.67;;;;;11.96;63.67;103405.25;6094331;23;45428;-76
2021/12/17 07:50:47;;;;;;;;;34.33;30.00;;;;;11.97;63.47;103405.25;6093214;23;45390;-77
2021/12/17 07:53:13;;;;;;;;;27.67;25.33;;;;;11.97;63.67;103407.94;6093935;23;45338;-77
2021/12/17 07:55:39;;;;;;;;;45.67;35.67;;;;;11.87;63.68;103383.91;6093332;23;45731;-77
2021/12/17 07:58:04;;;;;;;;;37.33;32.67;;;;;11.89;63.69;103391.03;6094014;23;45283;-78
2021/12/17 08:00:30;;;;;;;;;30.00;29.00;;;;;12.02;63.84;103394.53;6093822;23;45329;-77
2021/12/17 08:02:55;;;;;;;;;45.25;37.00;;;;;11.79;63.67;103359.91;6091957;23;45353;-76
2021/12/17 08:05:21;;;;;;;;;36.00;30.00;;;;;11.90;63.58;103378.59;6093757;23;45310;-77
2021/12/17 08:07:46;;;;;;;;;36.67;31.67;;;;;12.03;63.58;103401.66;6093650;23;45366;-76
2021/12/17 08:10:12;;;;;;;;;33.67;30.33;;;;;11.98;63.72;103390.97;6093829;23;45338;-75
2021/12/17 08:12:37;;;;;;;;;36.33;30.67;;;;;11.92;63.95;103372.34;6093488;23;45298;-79
2021/12/17 08:15:06;;;;;;;;;29.67;27.00;;;;;12.09;63.71;103398.06;6063497;23;45325;-77
2021/12/17 08:25:42;;;;;;;;;34.00;28.67;;;;;12.34;63.38;103404.06;6091539;23;45415;-77
2021/12/17 08:28:12;;;;;;;;;36.00;31.33;;;;;12.23;63.19;103388.13;6091144;23;45390;-78
2021/12/17 08:30:40;;;;;;;;;30.33;28.00;;;;;12.40;64.12;103412.94;6090826;23;45586;-78
2021/12/17 08:33:06;;;;;;;;;33.67;30.00;;;;;12.42;63.04;103410.25;6090236;23;45288;-78
2021/12/17 08:35:36;;;;;;;;;34.33;30.00;;;;;12.41;63.07;103408.50;6092039;23;45303;-78
2021/12/17 08:38:05;;;;;;;;;31.67;30.00;;;;;12.24;63.46;103385.47;6090724;23;45588;-78
2021/12/17 08:40:32;;;;;;;;;34.00;30.33;;;;;12.42;64.20;103408.47;6064325;23;47238;-78
2021/12/17 08:42:58;;;;;;;;;32.00;28.00;;;;;12.35;63.07;103385.34;6090155;23;45498;-77
2021/12/17 08:45:23;;;;;;;;;35.00;31.67;;;;;12.54;63.20;103403.91;6090388;23;45668;-77
2021/12/17 08:47:50;;;;;;;;;34.00;30.33;;;;;12.48;63.64;103396.84;6090708;23;45486;-78
2021/12/17 08:50:16;;;;;;;;;33.67;29.67;;;;;12.42;64.08;103379.06;6090875;23;46130;-77
2021/12/17 08:52:41;;;;;;;;;30.00;27.00;;;;;12.39;63.53;103371.06;6089632;23;45359;-77
2021/12/17 08:55:08;;;;;;;;;35.00;30.00;;;;;12.61;62.99;103392.25;6091461;23;45367;-77
2021/12/17 08:57:33;;;;;;;;;35.67;28.00;;;;;12.41;63.25;103374.63;6092673;23;45643;-77
2021/12/17 09:00:04;;;;;;;;;34.33;31.67;;;;;12.66;63.15;103399.31;6091116;23;45910;-77
2021/12/17 09:02:30;;;;;;;;;29.00;28.00;;;;;12.57;63.56;103377.13;6091747;23;45474;-77
2021/12/17 09:04:56;;;;;;;;;33.33;27.67;;;;;12.58;63.12;103376.25;6066172;23;45385;-77
2021/12/17 09:07:21;;;;;;;;;24.00;24.00;;;;;12.36;64.18;103354.13;6092748;23;45323;-77
2021/12/17 09:09:48;;;;;;;;;29.67;27.00;;;;;12.66;63.70;103393.97;6093032;23;46007;-77
2021/12/17 09:12:13;;;;;;;;;29.67;27.00;;;;;12.88;64.24;103420.53;6093669;23;45749;-77
2021/12/17 09:14:39;;;;;;;;;29.00;23.33;;;;;12.94;63.84;103411.56;6093033;23;45542;-76
2021/12/17 09:17:04;;;;;;;;;26.67;23.67;;;;;12.88;62.52;103396.44;6093550;23;45284;-77
2021/12/17 09:19:29;;;;;;;;;29.00;26.33;;;;;12.91;62.75;103419.63;6093828;23;46210;-77
2021/12/17 09:21:55;;;;;;;;;34.00;26.33;;;;;12.96;63.15;103417.78;6093041;23;45333;-77
2021/12/17 09:24:20;;;;;;;;;31.33;25.67;;;;;12.77;63.09;103403.69;6067330;23;45303;-77
2021/12/17 09:26:46;;;;;;;;;30.33;27.67;;;;;12.94;63.62;103432.97;6093775;23;45347;-77
2021/12/17 09:29:11;;;;;;;;;24.00;24.00;;;;;12.95;63.99;103408.88;6092892;23;46076;-77
2021/12/17 09:31:36;;;;;;;;;26.00;23.33;;;;;13.18;62.97;103430.03;6093901;23;45311;-77
2021/12/17 09:34:02;;;;;;;;;26.33;22.33;;;;;13.25;63.17;103433.50;6067146;23;45572;-76
2021/12/17 09:36:28;;;;;;;;;27.00;26.00;;;;;13.32;62.04;103434.34;6094008;23;45415;-76
2021/12/17 09:38:53;;;;;;;;;26.33;23.33;;;;;13.26;62.13;103428.13;6093429;23;45341;-76
2021/12/17 09:41:20;;;;;;;;;33.00;23.33;;;;;13.33;61.52;103436.16;6093380;23;45476;-77
2021/12/17 09:43:47;;;;;;;;;32.67;25.33;;;;;13.27;61.35;103437.06;6093202;23;45268;-76
2021/12/17 09:46:12;;;;;;;;;25.67;23.00;;;;;13.12;61.17;103432.78;6067468;23;45477;-76
2021/12/17 09:48:37;;;;;;;;;26.00;23.33;;;;;13.09;61.46;103438.16;6092795;23;45971;-77
2021/12/17 09:51:05;;;;;;;;;31.33;24.00;;;;;13.07;61.75;103448.00;6093487;23;45334;-76
2021/12/17 09:53:32;;;;;;;;;23.00;22.00;;;;;13.01;61.86;103456.09;6094069;23;45232;-77
2021/12/17 09:55:58;;;;;;;;;26.00;23.33;;;;;12.87;61.78;103457.09;6093912;23;45431;-77
2021/12/17 09:58:24;;;;;;;;;22.33;21.67;;;;;12.62;62.05;103435.06;6092695;23;45985;-76
2021/12/17 10:00:49;;;;;;;;;24.67;24.00;;;;;12.66;62.51;103449.28;6067092;23;45582;-75
2021/12/17 10:03:14;;;;;;;;;28.33;21.33;;;;;12.69;62.79;103457.31;6092960;23;45366;-74
2021/12/17 10:05:41;;;;;;;;;26.33;21.00;;;;;12.65;62.75;103458.22;6094344;23;45351;-75
2021/12/17 10:08:16;;;;;;;;;25.67;24.33;;;;;12.58;62.84;103454.72;6093643;23;46058;-76
2021/12/17 10:10:47;;;;;;;;;24.33;23.00;;;;;12.42;62.87;103416.50;6093412;23;45342;-76
2021/12/17 10:13:14;;;;;;;;;24.33;22.00;;;;;12.61;63.05;103456.47;6093093;23;45264;-76
2021/12/17 10:15:42;;;;;;;;;28.67;24.67;;;;;12.46;63.53;103433.41;6093655;23;45443;-76
2021/12/17 10:18:07;;;;;;;;;31.67;24.33;;;;;12.42;63.27;103420.97;6092888;23;48085;-76
2021/12/17 10:20:39;;;;;;;;;20.33;17.00;;;;;12.58;63.35;103448.47;6093169;23;45498;-75
2021/12/17 10:23:08;;;;;;;;;27.33;25.33;;;;;12.56;63.33;103447.59;6093455;23;45441;-76
2021/12/17 10:25:35;;;;;;;;;27.00;22.67;;;;;12.45;63.44;103427.19;6093120;23;45821;-75
2021/12/17 10:28:04;;;;;;;;;24.67;20.00;;;;;12.55;63.49;103433.34;6092940;23;45335;-76
2021/12/17 10:30:34;;;;;;;;;29.33;28.00;;;;;12.55;63.87;103429.75;6092597;23;45415;-76
2021/12/17 10:33:04;;;;;;;;;35.00;30.00;;;;;12.51;63.41;103425.34;6093130;23;45496;-77
2021/12/17 10:35:32;;;;;;;;;33.67;26.33;;;;;12.35;63.38;103396.06;6089131;23;45433;-77
2021/12/17 10:38:04;;;;;;;;;30.33;27.67;;;;;12.37;63.34;103394.25;6092106;23;46002;-77
2021/12/17 10:40:39;;;;;;;;;28.33;26.33;;;;;12.36;63.35;103389.81;6066898;23;45906;-76
2021/12/17 10:43:20;;;;;;;;;28.33;26.33;;;;;12.40;63.48;103399.56;6092693;23;45358;-76
2021/12/17 10:46:09;;;;;;;;;28.33;25.67;;;;;12.37;63.34;103383.56;6092790;23;45481;-76
2021/12/17 10:48:50;;;;;;;;;25.67;22.00;;;;;12.56;63.16;103405.69;6092366;23;46194;-77
2021/12/17 10:51:31;;;;;;;;;27.00;25.67;;;;;12.57;63.21;103404.78;6093107;23;45415;-76
2021/12/17 10:54:11;;;;;;;;;26.33;24.67;;;;;12.57;63.07;103404.78;6093139;23;45381;-76
2021/12/17 10:56:40;;;;;;;;;21.67;20.67;;;;;12.43;63.03;103374.56;6092473;23;45365;-75
2021/12/17 10:59:12;;;;;;;;;32.33;27.33;;;;;12.45;62.80;103376.38;6092331;23;45444;-75
2021/12/17 11:01:46;;;;;;;;;54.67;41.67;;;;;12.59;62.59;103381.56;6092502;23;45319;-75
2021/12/17 11:04:24;;;;;;;;;55.75;44.25;;;;;12.68;62.64;103388.63;6093358;23;45294;-75
2021/12/17 11:07:04;;;;;;;;;49.00;36.75;;;;;12.71;62.59;103385.91;6091754;23;45370;-75
2021/12/17 11:09:49;;;;;;;;;37.00;30.67;;;;;12.73;62.59;103377.88;6093168;23;45901;-75
2021/12/17 11:12:47;;;;;;;;;33.33;29.00;;;;;12.70;62.53;103364.53;6093132;23;45322;-76
2021/12/17 11:15:20;;;;;;;;;35.00;27.33;;;;;12.58;61.93;103337.00;6058672;23;45412;-75
2021/12/17 11:17:55;;;;;;;;;35.33;29.00;;;;;12.81;62.15;103360.84;6040139;23;45351;-75
2021/12/17 11:20:25;;;;;;;;;27.00;25.67;;;;;12.85;61.93;103359.91;6061077;23;45940;-77
2021/12/17 11:22:51;;;;;;;;;28.67;26.33;;;;;12.76;61.70;103332.31;6060732;23;45729;-75
2021/12/17 11:25:18;;;;;;;;;31.67;27.33;;;;;12.73;61.78;103325.22;6060985;23;45498;-75
2021/12/17 11:27:45;;;;;;;;;38.00;32.00;;;;;12.64;61.79;103309.28;6060399;23;45299;-75
2021/12/17 11:30:24;;;;;;;;;31.67;27.00;;;;;12.91;61.01;103345.56;6060669;23;45931;-75
2021/12/17 11:32:51;;;;;;;;;34.33;28.33;;;;;12.97;61.42;103352.59;6055539;23;45461;-76
2021/12/17 11:35:20;;;;;;;;;25.67;23.00;;;;;13.02;60.93;103349.00;6060148;23;45577;-75
2021/12/17 11:37:47;;;;;;;;;49.00;34.67;;;;;12.86;60.53;103304.56;6059798;23;45505;-75
2021/12/17 11:40:22;;;;;;;;;70.00;53.50;;;;;13.10;60.87;103336.38;6060772;23;45439;-74
2021/12/17 11:43:23;;;;;;;;;25.33;22.33;;;;;13.13;60.63;103340.81;6060547;23;45372;-74
2021/12/17 11:46:00;;;;;;;;;30.33;27.00;;;;;13.03;60.23;103315.06;6060362;23;45448;-74
2021/12/17 11:48:29;;;;;;;;;32.33;27.33;;;;;13.13;60.01;103331.91;6061536;23;45876;-75
2021/12/17 11:51:16;;;;;;;;;30.67;27.33;;;;;13.18;59.74;103330.03;6077000;23;46232;-75
2021/12/17 11:54:03;;;;;;;;;27.67;26.00;;;;;13.18;59.34;103333.63;6092461;23;45324;-74
2021/12/17 11:56:34;;;;;;;;;31.00;26.33;;;;;13.19;59.01;103315.75;6093416;23;45370;-74
2021/12/17 11:59:01;;;;;;;;;28.00;26.00;;;;;13.06;58.74;103305.22;6092713;23;45359;-75
2021/12/17 12:01:57;;;;;;;;;32.67;28.33;;;;;13.18;59.04;103325.59;6090837;23;45438;-75
2021/12/17 12:04:32;;;;;;;;;32.67;25.67;;;;;13.20;58.54;103317.50;6092730;23;45493;-75
2021/12/17 12:07:12;;;;;;;;;25.00;21.00;;;;;13.22;58.22;103319.25;6092802;23;45330;-75
2021/12/17 12:10:03;;;;;;;;;19.67;17.67;;;;;13.14;57.96;103309.59;6088162;23;45436;-78
2021/12/17 12:12:34;;;;;;;;;30.00;22.33;;;;;13.25;57.75;103310.31;6092345;23;45812;-76
2021/12/17 12:18:00;;;;;;;;;21.00;21.00;;;;;13.27;57.49;103308.50;6092679;23;45430;-76
2021/12/17 12:20:43;;;;;;;;;26.00;20.67;;;;;13.27;57.67;103305.81;6098514;23;45322;-77
2021/12/17 12:23:20;;;;;;;;;24.67;22.00;;;;;13.14;57.45;103277.44;6092733;23;45481;-76
2021/12/17 12:26:11;;;;;;;;;24.00;20.67;;;;;13.29;56.81;103310.28;6092113;23;45286;-77
2021/12/17 12:28:45;;;;;;;;;31.33;24.33;;;;;13.30;57.30;103300.47;6089217;23;45444;-76
2021/12/17 12:31:20;;;;;;;;;26.67;26.67;;;;;13.35;57.41;103298.59;6092418;23;45379;-75
2021/12/17 12:34:04;;;;;;;;;28.67;23.00;;;;;13.36;57.50;103296.81;6091952;23;45529;-76
2021/12/17 12:36:41;;;;;;;;;27.00;27.00;;;;;13.36;57.74;103283.41;6092467;23;45594;-76
2021/12/17 12:39:32;;;;;;;;;26.33;23.67;;;;;13.34;57.42;103277.19;6091992;23;45356;-75
2021/12/17 12:42:12;;;;;;;;;29.33;28.67;;;;;13.40;57.33;103283.34;6092552;23;45236;-75
2021/12/17 12:44:52;;;;;;;;;23.00;22.00;;;;;13.44;57.67;103281.53;6093831;23;45589;-75
2021/12/17 12:47:22;;;;;;;;;30.67;24.67;;;;;13.50;56.92;103287.66;6066608;23;45323;-76
2021/12/17 12:50:03;;;;;;;;;32.00;27.33;;;;;13.53;57.07;103284.03;6096605;23;45428;-77
2021/12/17 12:52:31;;;;;;;;;23.00;22.67;;;;;13.57;56.77;103280.41;6092841;23;45309;-75
2021/12/17 12:55:17;;;;;;;;;26.33;24.00;;;;;13.59;56.89;103288.44;6094829;23;45332;-76
2021/12/17 12:57:49;;;;;;;;;28.00;26.00;;;;;13.56;56.44;103273.28;6092230;23;45340;-76
2021/12/17 13:00:14;;;;;;;;;24.00;21.33;;;;;13.58;56.56;103271.47;6093872;23;45434;-76
2021/12/17 13:02:42;;;;;;;;;27.67;23.33;;;;;13.38;56.49;103223.53;6092296;23;45549;-77
2021/12/17 13:05:08;;;;;;;;;22.67;19.00;;;;;13.73;56.76;103270.31;6093551;23;45415;-76
2021/12/17 13:08:02;;;;;;;;;25.33;22.00;;;;;13.78;56.26;103264.91;6092383;23;45381;-76
2021/12/17 13:10:51;;;;;;;;;19.00;17.67;;;;;13.82;56.02;103277.34;6086610;23;45344;-77
2021/12/17 13:13:44;;;;;;;;;23.00;22.33;;;;;13.81;55.36;103272.88;6088573;23;45526;-76
2021/12/17 13:16:15;;;;;;;;;24.00;22.33;;;;;13.73;55.79;103265.84;6090974;23;46612;-76
2021/12/17 13:24:19;;;;;;;;;22.33;21.00;;;;;13.67;56.11;103263.28;6092925;23;45291;-76
2021/12/17 13:26:56;;;;;;;;;28.67;24.33;;;;;13.63;56.25;103261.56;6092140;23;45501;-77
2021/12/17 13:29:30;;;;;;;;;23.00;21.67;;;;;13.54;56.24;103248.31;6092948;23;45387;-76
2021/12/17 13:32:03;;;;;;;;;23.33;20.67;;;;;13.69;56.13;103258.75;6091291;23;45477;-75
2021/12/17 13:34:35;;;;;;;;;23.67;21.33;;;;;13.79;56.24;103267.56;6092917;23;45296;-76
2021/12/17 13:37:13;;;;;;;;;21.00;17.33;;;;;13.65;56.19;103232.94;6092395;23;46293;-76
2021/12/17 13:39:41;;;;;;;;;22.00;18.33;;;;;13.76;55.64;103270.28;6092720;23;45351;-75
2021/12/17 13:42:07;;;;;;;;;18.67;18.00;;;;;13.60;55.64;103253.56;6092618;23;45402;-76
2021/12/17 13:44:48;;;;;;;;;19.33;16.00;;;;;13.51;55.65;103237.66;6093099;23;45349;-76
2021/12/17 13:47:23;;;;;;;;;38.00;30.67;;;;;13.63;55.93;103266.91;6092618;23;46186;-75
2021/12/17 13:50:20;;;;;;;;;41.67;35.67;;;;;13.47;56.28;103244.84;6091311;23;45629;-76
2021/12/17 13:52:55;;;;;;;;;20.00;18.67;;;;;13.50;56.24;103260.84;6091151;23;45794;-76
2021/12/17 13:55:30;;;;;;;;;25.67;21.33;;;;;13.42;56.24;103248.50;6066878;23;45369;-77
2021/12/17 13:57:57;;;;;;;;;26.00;21.67;;;;;13.28;56.26;103224.59;6092300;23;45431;-76
2021/12/17 14:00:36;;;;;;;;;22.00;21.33;;;;;13.39;56.52;103246.75;6092915;23;45406;-76
2021/12/17 14:03:03;;;;;;;;;25.00;23.67;;;;;13.37;56.64;103235.19;6091428;23;45253;-76
2021/12/17 14:05:40;;;;;;;;;23.50;22.00;;;;;13.38;56.72;103244.97;6093412;23;45313;-75
2021/12/17 14:08:09;;;;;;;;;26.00;21.00;;;;;13.20;56.84;103205.91;6092249;23;45362;-76
2021/12/17 14:10:37;;;;;;;;;23.00;23.00;;;;;13.35;56.94;103230.75;6092913;23;45505;-77
2021/12/17 14:13:05;;;;;;;;;25.67;22.33;;;;;13.33;57.06;103232.56;6091420;23;45200;-76